sensor_id;sensor_type;location;lat;lon;timestamp;pressure;altitude;pressure_sealevel;temperature;humidity
64095;BME280;50353;51.420;5.682;2023-04-28T00:00:20;101043.59;;;10.88;69.75
64095;BME280;50353;51.420;5.682;2023-04-28T00:02:45;101043.81;;;10.69;72.86
64095;BME280;50353;51.420;5.682;2023-04-28T00:05:12;101034.66;;;10.44;74.39
64095;BME280;50353;51.420;5.682;2023-04-28T00:07:38;101033.81;;;10.43;74.97
64095;BME280;50353;51.420;5.682;2023-04-28T00:10:03;101029.19;;;10.31;74.21
64095;BME280;50353;51.420;5.682;2023-04-28T00:12:29;101024.34;;;10.39;72.24
64095;BME280;50353;51.420;5.682;2023-04-28T00:14:54;101023.66;;;10.36;71.34
64095;BME280;50353;51.420;5.682;2023-04-28T00:17:19;101024.59;;;10.35;75.23
64095;BME280;50353;51.420;5.682;2023-04-28T00:19:45;101022.94;;;9.84;76.25
64095;BME280;50353;51.420;5.682;2023-04-28T00:22:10;101017.22;;;10.24;75.12
64095;BME280;50353;51.420;5.682;2023-04-28T00:24:35;101014.41;;;9.95;74.90
64095;BME280;50353;51.420;5.682;2023-04-28T00:27:01;101003.09;;;10.25;76.12
64095;BME280;50353;51.420;5.682;2023-04-28T00:29:27;101007.47;;;9.94;77.16
64095;BME280;50353;51.420;5.682;2023-04-28T00:31:53;101000.97;;;10.15;78.57
64095;BME280;50353;51.420;5.682;2023-04-28T00:34:18;101002.06;;;9.79;79.61
64095;BME280;50353;51.420;5.682;2023-04-28T00:36:43;100997.75;;;9.94;78.33
64095;BME280;50353;51.420;5.682;2023-04-28T00:39:09;101003.56;;;9.52;77.98
64095;BME280;50353;51.420;5.682;2023-04-28T00:41:34;100990.09;;;9.23;78.27
64095;BME280;50353;51.420;5.682;2023-04-28T00:43:59;100988.78;;;9.97;77.25
64095;BME280;50353;51.420;5.682;2023-04-28T00:46:32;100971.41;;;9.93;77.72
64095;BME280;50353;51.420;5.682;2023-04-28T00:48:57;100970.56;;;10.08;77.19
64095;BME280;50353;51.420;5.682;2023-04-28T00:51:23;100972.31;;;10.56;74.92
64095;BME280;50353;51.420;5.682;2023-04-28T00:53:49;100973.00;;;10.27;75.16
64095;BME280;50353;51.420;5.682;2023-04-28T00:56:16;100972.69;;;10.18;75.45
64095;BME280;50353;51.420;5.682;2023-04-28T00:58:41;100965.09;;;9.79;80.15
64095;BME280;50353;51.420;5.682;2023-04-28T01:01:08;100957.06;;;10.29;74.73
64095;BME280;50353;51.420;5.682;2023-04-28T01:03:37;100954.00;;;10.21;76.35
64095;BME280;50353;51.420;5.682;2023-04-28T01:06:04;100953.41;;;10.31;75.66
64095;BME280;50353;51.420;5.682;2023-04-28T01:08:30;100954.78;;;9.91;77.79
64095;BME280;50353;51.420;5.682;2023-04-28T01:10:56;100957.25;;;9.62;79.32
64095;BME280;50353;51.420;5.682;2023-04-28T01:13:21;100953.16;;;9.23;79.62
64095;BME280;50353;51.420;5.682;2023-04-28T01:15:47;100948.28;;;9.48;79.99
64095;BME280;50353;51.420;5.682;2023-04-28T01:18:13;100941.59;;;9.59;77.91
64095;BME280;50353;51.420;5.682;2023-04-28T01:20:40;100939.50;;;9.32;80.14
64095;BME280;50353;51.420;5.682;2023-04-28T01:23:14;100926.44;;;9.46;79.13
64095;BME280;50353;51.420;5.682;2023-04-28T01:25:40;100936.81;;;9.50;77.50
64095;BME280;50353;51.420;5.682;2023-04-28T01:28:06;100928.25;;;9.94;76.30
64095;BME280;50353;51.420;5.682;2023-04-28T01:30:32;100928.84;;;9.83;77.63
64095;BME280;50353;51.420;5.682;2023-04-28T01:32:57;100934.16;;;9.50;80.60
64095;BME280;50353;51.420;5.682;2023-04-28T01:35:23;100932.47;;;9.96;76.38
64095;BME280;50353;51.420;5.682;2023-04-28T01:37:48;100918.78;;;9.90;76.72
64095;BME280;50353;51.420;5.682;2023-04-28T01:40:13;100926.69;;;9.58;77.67
64095;BME280;50353;51.420;5.682;2023-04-28T01:42:39;100923.34;;;9.54;79.24
64095;BME280;50353;51.420;5.682;2023-04-28T01:45:04;100931.31;;;9.86;76.58
64095;BME280;50353;51.420;5.682;2023-04-28T01:47:30;100930.75;;;10.11;77.76
64095;BME280;50353;51.420;5.682;2023-04-28T01:49:56;100917.97;;;10.20;76.76
64095;BME280;50353;51.420;5.682;2023-04-28T01:52:21;100918.44;;;9.80;78.65
64095;BME280;50353;51.420;5.682;2023-04-28T01:54:51;100909.06;;;10.06;77.58
64095;BME280;50353;51.420;5.682;2023-04-28T01:57:16;100914.34;;;10.06;79.10
64095;BME280;50353;51.420;5.682;2023-04-28T01:59:41;100915.31;;;10.20;78.05
64095;BME280;50353;51.420;5.682;2023-04-28T02:02:07;100905.50;;;9.91;79.26
64095;BME280;50353;51.420;5.682;2023-04-28T02:04:32;100906.75;;;10.16;76.99
64095;BME280;50353;51.420;5.682;2023-04-28T02:06:57;100894.94;;;9.59;79.31
64095;BME280;50353;51.420;5.682;2023-04-28T02:09:23;100894.06;;;9.91;79.50
64095;BME280;50353;51.420;5.682;2023-04-28T02:11:48;100890.81;;;9.86;80.04
64095;BME280;50353;51.420;5.682;2023-04-28T02:14:13;100893.31;;;9.73;80.13
64095;BME280;50353;51.420;5.682;2023-04-28T02:16:39;100899.44;;;10.05;78.14
64095;BME280;50353;51.420;5.682;2023-04-28T02:19:04;100891.19;;;9.79;81.41
64095;BME280;50353;51.420;5.682;2023-04-28T02:21:30;100889.97;;;10.17;79.66
64095;BME280;50353;51.420;5.682;2023-04-28T02:23:55;100895.75;;;10.08;80.18
64095;BME280;50353;51.420;5.682;2023-04-28T02:26:21;100902.88;;;10.22;79.76
64095;BME280;50353;51.420;5.682;2023-04-28T02:28:47;100901.41;;;10.32;79.94
64095;BME280;50353;51.420;5.682;2023-04-28T02:31:13;100893.22;;;9.90;80.68
64095;BME280;50353;51.420;5.682;2023-04-28T02:33:38;100889.47;;;10.10;79.70
64095;BME280;50353;51.420;5.682;2023-04-28T02:36:05;100884.03;;;10.28;79.44
64095;BME280;50353;51.420;5.682;2023-04-28T02:38:30;100871.59;;;9.84;81.29
64095;BME280;50353;51.420;5.682;2023-04-28T02:40:57;100863.19;;;10.07;80.54
64095;BME280;50353;51.420;5.682;2023-04-28T02:43:23;100856.75;;;10.13;81.91
64095;BME280;50353;51.420;5.682;2023-04-28T02:45:48;100851.59;;;9.63;83.19
64095;BME280;50353;51.420;5.682;2023-04-28T02:48:13;100843.25;;;9.39;85.48
64095;BME280;50353;51.420;5.682;2023-04-28T02:50:39;100840.94;;;9.65;84.69
64095;BME280;50353;51.420;5.682;2023-04-28T02:53:04;100834.34;;;10.04;82.80
64095;BME280;50353;51.420;5.682;2023-04-28T02:55:30;100816.59;;;9.76;83.60
64095;BME280;50353;51.420;5.682;2023-04-28T02:57:56;100806.63;;;10.11;83.53
64095;BME280;50353;51.420;5.682;2023-04-28T03:00:21;100807.38;;;10.44;81.05
64095;BME280;50353;51.420;5.682;2023-04-28T03:02:46;100798.88;;;9.78;84.33
64095;BME280;50353;51.420;5.682;2023-04-28T03:05:12;100789.03;;;9.34;86.42
64095;BME280;50353;51.420;5.682;2023-04-28T03:07:37;100780.97;;;9.37;87.33
64095;BME280;50353;51.420;5.682;2023-04-28T03:10:03;100774.75;;;9.54;86.54
64095;BME280;50353;51.420;5.682;2023-04-28T03:12:28;100775.53;;;9.40;88.46
64095;BME280;50353;51.420;5.682;2023-04-28T03:14:53;100805.00;;;9.78;86.42
64095;BME280;50353;51.420;5.682;2023-04-28T03:17:18;100812.66;;;10.13;84.44
64095;BME280;50353;51.420;5.682;2023-04-28T03:19:44;100823.69;;;10.06;85.38
64095;BME280;50353;51.420;5.682;2023-04-28T03:22:09;100821.81;;;10.08;85.62
64095;BME280;50353;51.420;5.682;2023-04-28T03:24:35;100812.38;;;10.18;84.55
64095;BME280;50353;51.420;5.682;2023-04-28T03:27:00;100813.75;;;10.25;84.22
64095;BME280;50353;51.420;5.682;2023-04-28T03:29:27;100803.31;;;10.38;84.02
64095;BME280;50353;51.420;5.682;2023-04-28T03:31:52;100806.06;;;10.06;86.55
64095;BME280;50353;51.420;5.682;2023-04-28T03:34:18;100796.72;;;10.15;84.92
64095;BME280;50353;51.420;5.682;2023-04-28T03:36:43;100801.44;;;10.40;84.66
64095;BME280;50353;51.420;5.682;2023-04-28T03:39:08;100802.28;;;10.10;85.94
64095;BME280;50353;51.420;5.682;2023-04-28T03:41:34;100804.84;;;10.26;86.25
64095;BME280;50353;51.420;5.682;2023-04-28T03:43:59;100807.59;;;10.25;86.20
64095;BME280;50353;51.420;5.682;2023-04-28T03:46:24;100797.03;;;10.25;85.93
64095;BME280;50353;51.420;5.682;2023-04-28T03:48:50;100792.31;;;9.85;87.62
64095;BME280;50353;51.420;5.682;2023-04-28T03:51:15;100796.03;;;10.11;86.04
64095;BME280;50353;51.420;5.682;2023-04-28T03:53:40;100800.50;;;10.11;85.99
64095;BME280;50353;51.420;5.682;2023-04-28T03:56:06;100801.66;;;10.21;86.76
64095;BME280;50353;51.420;5.682;2023-04-28T03:58:31;100810.81;;;10.30;88.51
64095;BME280;50353;51.420;5.682;2023-04-28T04:00:56;100796.63;;;10.47;86.24
64095;BME280;50353;51.420;5.682;2023-04-28T04:03:22;100800.09;;;10.03;88.07
64095;BME280;50353;51.420;5.682;2023-04-28T04:05:50;100787.38;;;10.40;87.67
64095;BME280;50353;51.420;5.682;2023-04-28T04:08:15;100780.13;;;10.72;85.24
64095;BME280;50353;51.420;5.682;2023-04-28T04:10:41;100779.66;;;10.65;85.41
64095;BME280;50353;51.420;5.682;2023-04-28T04:13:06;100777.84;;;10.66;85.28
64095;BME280;50353;51.420;5.682;2023-04-28T04:15:31;100774.00;;;10.72;85.73
64095;BME280;50353;51.420;5.682;2023-04-28T04:17:57;100772.38;;;10.55;86.85
64095;BME280;50353;51.420;5.682;2023-04-28T04:20:22;100765.19;;;10.71;85.26
64095;BME280;50353;51.420;5.682;2023-04-28T04:22:47;100766.34;;;10.81;85.76
64095;BME280;50353;51.420;5.682;2023-04-28T04:25:13;100768.50;;;10.75;86.11
64095;BME280;50353;51.420;5.682;2023-04-28T04:27:38;100770.88;;;10.65;87.48
64095;BME280;50353;51.420;5.682;2023-04-28T04:30:04;100768.31;;;10.49;88.26
64095;BME280;50353;51.420;5.682;2023-04-28T04:32:29;100772.56;;;10.52;89.07
64095;BME280;50353;51.420;5.682;2023-04-28T04:34:54;100776.00;;;10.23;91.13
64095;BME280;50353;51.420;5.682;2023-04-28T04:37:21;100760.19;;;10.38;89.79
64095;BME280;50353;51.420;5.682;2023-04-28T04:39:47;100767.28;;;10.52;89.49
64095;BME280;50353;51.420;5.682;2023-04-28T04:42:12;100767.25;;;10.66;89.30
64095;BME280;50353;51.420;5.682;2023-04-28T04:44:37;100756.69;;;10.66;89.29
64095;BME280;50353;51.420;5.682;2023-04-28T04:47:02;100765.28;;;10.84;87.83
64095;BME280;50353;51.420;5.682;2023-04-28T04:49:28;100755.28;;;10.75;88.31
64095;BME280;50353;51.420;5.682;2023-04-28T04:51:53;100741.31;;;10.58;90.44
64095;BME280;50353;51.420;5.682;2023-04-28T04:54:18;100743.66;;;10.63;89.82
64095;BME280;50353;51.420;5.682;2023-04-28T04:56:44;100743.47;;;10.66;90.41
64095;BME280;50353;51.420;5.682;2023-04-28T04:59:09;100747.25;;;10.62;90.23
64095;BME280;50353;51.420;5.682;2023-04-28T05:01:34;100737.44;;;10.78;89.19
64095;BME280;50353;51.420;5.682;2023-04-28T05:04:00;100737.72;;;10.74;89.65
64095;BME280;50353;51.420;5.682;2023-04-28T05:06:25;100737.63;;;10.75;90.45
64095;BME280;50353;51.420;5.682;2023-04-28T05:08:50;100734.31;;;10.86;90.08
64095;BME280;50353;51.420;5.682;2023-04-28T05:11:16;100726.66;;;10.67;90.98
64095;BME280;50353;51.420;5.682;2023-04-28T05:13:41;100739.63;;;10.72;91.34
64095;BME280;50353;51.420;5.682;2023-04-28T05:16:06;100737.97;;;10.83;90.37
64095;BME280;50353;51.420;5.682;2023-04-28T05:18:32;100740.09;;;10.64;92.35
64095;BME280;50353;51.420;5.682;2023-04-28T05:20:57;100738.72;;;11.00;90.21
64095;BME280;50353;51.420;5.682;2023-04-28T05:23:23;100731.59;;;10.59;92.73
64095;BME280;50353;51.420;5.682;2023-04-28T05:25:49;100744.81;;;10.73;92.06
64095;BME280;50353;51.420;5.682;2023-04-28T05:28:14;100750.09;;;10.73;92.67
64095;BME280;50353;51.420;5.682;2023-04-28T05:30:39;100743.63;;;10.92;90.70
64095;BME280;50353;51.420;5.682;2023-04-28T05:33:05;100739.25;;;11.05;91.07
64095;BME280;50353;51.420;5.682;2023-04-28T05:35:30;100742.78;;;11.06;91.40
64095;BME280;50353;51.420;5.682;2023-04-28T05:37:56;100736.59;;;11.20;90.84
64095;BME280;50353;51.420;5.682;2023-04-28T05:40:22;100740.63;;;11.25;91.08
64095;BME280;50353;51.420;5.682;2023-04-28T05:42:47;100731.09;;;11.23;91.86
64095;BME280;50353;51.420;5.682;2023-04-28T05:45:12;100722.41;;;11.21;92.41
64095;BME280;50353;51.420;5.682;2023-04-28T05:47:39;100721.41;;;11.36;91.39
64095;BME280;50353;51.420;5.682;2023-04-28T05:50:04;100723.88;;;10.97;95.72
64095;BME280;50353;51.420;5.682;2023-04-28T05:52:30;100726.03;;;11.05;95.92
64095;BME280;50353;51.420;5.682;2023-04-28T05:54:55;100726.75;;;11.22;95.33
64095;BME280;50353;51.420;5.682;2023-04-28T05:57:20;100735.72;;;11.19;94.73
64095;BME280;50353;51.420;5.682;2023-04-28T05:59:46;100737.31;;;11.36;92.27
64095;BME280;50353;51.420;5.682;2023-04-28T06:02:11;100736.84;;;10.88;97.27
64095;BME280;50353;51.420;5.682;2023-04-28T06:04:37;100737.44;;;11.20;96.64
64095;BME280;50353;51.420;5.682;2023-04-28T06:07:02;100738.44;;;11.32;96.15
64095;BME280;50353;51.420;5.682;2023-04-28T06:09:28;100740.19;;;11.46;94.67
64095;BME280;50353;51.420;5.682;2023-04-28T06:11:53;100733.63;;;11.52;94.77
64095;BME280;50353;51.420;5.682;2023-04-28T06:14:19;100742.84;;;11.59;93.97
64095;BME280;50353;51.420;5.682;2023-04-28T06:16:44;100748.91;;;11.61;95.58
64095;BME280;50353;51.420;5.682;2023-04-28T06:19:10;100745.47;;;11.73;94.92
64095;BME280;50353;51.420;5.682;2023-04-28T06:21:35;100748.78;;;11.90;93.29
64095;BME280;50353;51.420;5.682;2023-04-28T06:24:01;100755.22;;;11.86;93.04
64095;BME280;50353;51.420;5.682;2023-04-28T06:26:26;100736.13;;;11.67;94.83
64095;BME280;50353;51.420;5.682;2023-04-28T06:28:52;100729.13;;;12.07;92.19
64095;BME280;50353;51.420;5.682;2023-04-28T06:31:17;100735.03;;;12.10;91.48
64095;BME280;50353;51.420;5.682;2023-04-28T06:33:42;100739.84;;;12.44;90.76
64095;BME280;50353;51.420;5.682;2023-04-28T06:36:08;100733.13;;;11.99;93.57
64095;BME280;50353;51.420;5.682;2023-04-28T06:38:33;100733.88;;;12.14;92.36
64095;BME280;50353;51.420;5.682;2023-04-28T06:40:58;100730.06;;;12.18;93.42
64095;BME280;50353;51.420;5.682;2023-04-28T06:43:24;100723.72;;;12.34;91.57
64095;BME280;50353;51.420;5.682;2023-04-28T06:45:49;100719.78;;;12.40;91.35
64095;BME280;50353;51.420;5.682;2023-04-28T06:48:14;100730.06;;;12.44;91.93
64095;BME280;50353;51.420;5.682;2023-04-28T06:50:39;100727.38;;;11.93;95.48
64095;BME280;50353;51.420;5.682;2023-04-28T06:53:05;100717.25;;;12.38;94.59
64095;BME280;50353;51.420;5.682;2023-04-28T06:55:32;100727.22;;;12.34;95.14
64095;BME280;50353;51.420;5.682;2023-04-28T06:57:58;100719.56;;;12.43;96.63
64095;BME280;50353;51.420;5.682;2023-04-28T07:00:23;100718.53;;;12.20;97.89
64095;BME280;50353;51.420;5.682;2023-04-28T07:02:48;100722.00;;;12.46;97.73
64095;BME280;50353;51.420;5.682;2023-04-28T07:05:14;100715.34;;;12.40;97.75
64095;BME280;50353;51.420;5.682;2023-04-28T07:07:39;100709.09;;;12.15;100.00
64095;BME280;50353;51.420;5.682;2023-04-28T07:10:05;100714.91;;;12.46;98.67
64095;BME280;50353;51.420;5.682;2023-04-28T07:12:31;100716.50;;;12.49;97.60
64095;BME280;50353;51.420;5.682;2023-04-28T07:14:56;100710.44;;;12.47;98.82
64095;BME280;50353;51.420;5.682;2023-04-28T07:17:21;100710.34;;;12.48;99.20
64095;BME280;50353;51.420;5.682;2023-04-28T07:19:46;100711.34;;;12.22;100.00
64095;BME280;50353;51.420;5.682;2023-04-28T07:22:14;100712.91;;;12.37;100.00
64095;BME280;50353;51.420;5.682;2023-04-28T07:24:40;100706.22;;;12.44;100.00
64095;BME280;50353;51.420;5.682;2023-04-28T07:27:05;100702.56;;;12.71;99.58
64095;BME280;50353;51.420;5.682;2023-04-28T07:29:30;100704.00;;;12.88;98.60
64095;BME280;50353;51.420;5.682;2023-04-28T07:31:59;100705.06;;;12.85;99.16
64095;BME280;50353;51.420;5.682;2023-04-28T07:34:25;100704.63;;;12.92;98.98
64095;BME280;50353;51.420;5.682;2023-04-28T07:36:51;100715.81;;;12.71;100.00
64095;BME280;50353;51.420;5.682;2023-04-28T07:39:16;100719.69;;;12.28;100.00
64095;BME280;50353;51.420;5.682;2023-04-28T07:41:42;100715.63;;;11.97;100.00
64095;BME280;50353;51.420;5.682;2023-04-28T07:44:07;100713.53;;;12.28;100.00
64095;BME280;50353;51.420;5.682;2023-04-28T07:46:33;100719.47;;;12.44;100.00
64095;BME280;50353;51.420;5.682;2023-04-28T07:48:59;100715.81;;;12.71;100.00
64095;BME280;50353;51.420;5.682;2023-04-28T07:51:25;100715.06;;;12.69;100.00
64095;BME280;50353;51.420;5.682;2023-04-28T07:53:51;100709.09;;;12.41;100.00
64095;BME280;50353;51.420;5.682;2023-04-28T07:56:16;100705.44;;;12.55;100.00
64095;BME280;50353;51.420;5.682;2023-04-28T07:58:42;100717.44;;;12.35;100.00
64095;BME280;50353;51.420;5.682;2023-04-28T08:01:07;100713.84;;;12.36;100.00
64095;BME280;50353;51.420;5.682;2023-04-28T08:03:32;100713.75;;;12.50;100.00
64095;BME280;50353;51.420;5.682;2023-04-28T08:05:58;100722.38;;;12.91;100.00
64095;BME280;50353;51.420;5.682;2023-04-28T08:08:23;100711.25;;;12.73;100.00
64095;BME280;50353;51.420;5.682;2023-04-28T08:10:49;100722.66;;;12.49;100.00
64095;BME280;50353;51.420;5.682;2023-04-28T08:13:15;100722.41;;;12.52;100.00
64095;BME280;50353;51.420;5.682;2023-04-28T08:15:41;100726.63;;;12.81;100.00
64095;BME280;50353;51.420;5.682;2023-04-28T08:18:06;100725.03;;;12.78;100.00
64095;BME280;50353;51.420;5.682;2023-04-28T08:20:31;100719.88;;;13.01;100.00
64095;BME280;50353;51.420;5.682;2023-04-28T08:22:57;100729.09;;;13.32;100.00
64095;BME280;50353;51.420;5.682;2023-04-28T08:25:22;100718.09;;;13.26;100.00
64095;BME280;50353;51.420;5.682;2023-04-28T08:27:48;100724.59;;;13.22;100.00
64095;BME280;50353;51.420;5.682;2023-04-28T08:30:13;100735.50;;;13.30;100.00
64095;BME280;50353;51.420;5.682;2023-04-28T08:32:39;100730.13;;;13.18;100.00
64095;BME280;50353;51.420;5.682;2023-04-28T08:35:04;100723.63;;;13.23;100.00
64095;BME280;50353;51.420;5.682;2023-04-28T08:37:30;100720.78;;;13.13;100.00
64095;BME280;50353;51.420;5.682;2023-04-28T08:39:55;100728.72;;;13.26;100.00
64095;BME280;50353;51.420;5.682;2023-04-28T08:42:29;100728.47;;;13.42;100.00
64095;BME280;50353;51.420;5.682;2023-04-28T08:44:55;100721.09;;;13.81;100.00
64095;BME280;50353;51.420;5.682;2023-04-28T08:47:37;100725.38;;;13.35;100.00
64095;BME280;50353;51.420;5.682;2023-04-28T08:50:05;100724.88;;;13.30;100.00
64095;BME280;50353;51.420;5.682;2023-04-28T08:52:31;100720.97;;;13.23;100.00
64095;BME280;50353;51.420;5.682;2023-04-28T08:54:58;100721.47;;;13.28;100.00
64095;BME280;50353;51.420;5.682;2023-04-28T08:57:27;100724.09;;;13.41;100.00
64095;BME280;50353;51.420;5.682;2023-04-28T08:59:54;100724.03;;;13.53;100.00
64095;BME280;50353;51.420;5.682;2023-04-28T09:02:21;100730.59;;;13.61;100.00
64095;BME280;50353;51.420;5.682;2023-04-28T09:04:46;100732.06;;;13.65;100.00
64095;BME280;50353;51.420;5.682;2023-04-28T09:07:12;100733.66;;;13.67;100.00
64095;BME280;50353;51.420;5.682;2023-04-28T09:09:39;100724.63;;;13.33;100.00
64095;BME280;50353;51.420;5.682;2023-04-28T09:12:05;100730.19;;;13.30;100.00
64095;BME280;50353;51.420;5.682;2023-04-28T09:14:33;100722.69;;;13.48;100.00
64095;BME280;50353;51.420;5.682;2023-04-28T09:16:59;100725.06;;;13.64;100.00
64095;BME280;50353;51.420;5.682;2023-04-28T09:19:35;100733.06;;;13.75;100.00
64095;BME280;50353;51.420;5.682;2023-04-28T09:22:02;100728.38;;;13.90;100.00
64095;BME280;50353;51.420;5.682;2023-04-28T09:24:32;100728.13;;;13.82;100.00
64095;BME280;50353;51.420;5.682;2023-04-28T09:26:59;100730.16;;;13.78;100.00
64095;BME280;50353;51.420;5.682;2023-04-28T09:29:25;100722.63;;;14.19;100.00
64095;BME280;50353;51.420;5.682;2023-04-28T09:31:50;100730.63;;;14.19;100.00
64095;BME280;50353;51.420;5.682;2023-04-28T09:34:17;100719.59;;;14.12;100.00
64095;BME280;50353;51.420;5.682;2023-04-28T09:36:42;100719.88;;;14.43;100.00
64095;BME280;50353;51.420;5.682;2023-04-28T09:39:08;100725.22;;;14.43;100.00
64095;BME280;50353;51.420;5.682;2023-04-28T09:41:40;100719.81;;;14.67;100.00
64095;BME280;50353;51.420;5.682;2023-04-28T09:44:10;100723.75;;;14.62;100.00
64095;BME280;50353;51.420;5.682;2023-04-28T09:46:35;100724.75;;;14.83;99.99
64095;BME280;50353;51.420;5.682;2023-04-28T09:49:01;100720.88;;;14.76;100.00
64095;BME280;50353;51.420;5.682;2023-04-28T09:51:27;100725.47;;;14.74;100.00
64095;BME280;50353;51.420;5.682;2023-04-28T09:53:54;100727.28;;;14.85;100.00
64095;BME280;50353;51.420;5.682;2023-04-28T09:56:26;100731.50;;;14.76;99.27
64095;BME280;50353;51.420;5.682;2023-04-28T09:58:52;100729.81;;;14.86;96.96
64095;BME280;50353;51.420;5.682;2023-04-28T10:01:18;100736.22;;;14.84;96.43
64095;BME280;50353;51.420;5.682;2023-04-28T10:03:44;100733.47;;;14.74;99.93
64095;BME280;50353;51.420;5.682;2023-04-28T10:06:10;100737.56;;;14.67;100.00
64095;BME280;50353;51.420;5.682;2023-04-28T10:08:35;100741.16;;;14.32;100.00
64095;BME280;50353;51.420;5.682;2023-04-28T10:11:00;100731.97;;;14.47;100.00
64095;BME280;50353;51.420;5.682;2023-04-28T10:13:26;100734.38;;;14.39;100.00
64095;BME280;50353;51.420;5.682;2023-04-28T10:15:51;100741.75;;;14.24;100.00
64095;BME280;50353;51.420;5.682;2023-04-28T10:18:21;100735.22;;;14.17;100.00
64095;BME280;50353;51.420;5.682;2023-04-28T10:20:49;100735.97;;;14.53;100.00
64095;BME280;50353;51.420;5.682;2023-04-28T10:25:58;100725.44;;;14.51;100.00
64095;BME280;50353;51.420;5.682;2023-04-28T10:28:24;100724.16;;;14.68;100.00
64095;BME280;50353;51.420;5.682;2023-04-28T10:31:16;100713.84;;;14.52;100.00
64095;BME280;50353;51.420;5.682;2023-04-28T10:33:43;100723.41;;;14.66;100.00
64095;BME280;50353;51.420;5.682;2023-04-28T10:36:09;100722.41;;;14.90;100.00
64095;BME280;50353;51.420;5.682;2023-04-28T10:38:35;100721.34;;;14.81;100.00
64095;BME280;50353;51.420;5.682;2023-04-28T10:41:32;100723.25;;;15.02;100.00
64095;BME280;50353;51.420;5.682;2023-04-28T10:43:57;100719.09;;;15.09;100.00
64095;BME280;50353;51.420;5.682;2023-04-28T10:46:23;100720.56;;;15.13;100.00
64095;BME280;50353;51.420;5.682;2023-04-28T10:56:20;100710.16;;;15.10;100.00
64095;BME280;50353;51.420;5.682;2023-04-28T10:58:47;100711.31;;;15.61;95.93
64095;BME280;50353;51.420;5.682;2023-04-28T11:01:29;100714.63;;;15.75;97.69
64095;BME280;50353;51.420;5.682;2023-04-28T11:04:04;100709.88;;;15.78;93.99
64095;BME280;50353;51.420;5.682;2023-04-28T11:06:36;100704.72;;;15.98;90.97
64095;BME280;50353;51.420;5.682;2023-04-28T11:14:29;100705.09;;;15.72;94.53
64095;BME280;50353;51.420;5.682;2023-04-28T11:16:56;100703.34;;;15.82;95.45
64095;BME280;50353;51.420;5.682;2023-04-28T11:19:43;100697.44;;;16.00;93.29
64095;BME280;50353;51.420;5.682;2023-04-28T11:24:38;100694.16;;;16.17;91.88
64095;BME280;50353;51.420;5.682;2023-04-28T11:27:04;100697.16;;;16.24;91.56
64095;BME280;50353;51.420;5.682;2023-04-28T11:29:39;100693.91;;;16.20;93.68
64095;BME280;50353;51.420;5.682;2023-04-28T11:32:08;100685.84;;;15.89;96.51
64095;BME280;50353;51.420;5.682;2023-04-28T11:34:35;100691.78;;;16.14;96.19
64095;BME280;50353;51.420;5.682;2023-04-28T11:37:00;100690.34;;;16.41;89.86
64095;BME280;50353;51.420;5.682;2023-04-28T11:39:30;100682.63;;;16.17;91.48
64095;BME280;50353;51.420;5.682;2023-04-28T11:41:57;100693.00;;;16.41;89.33
64095;BME280;50353;51.420;5.682;2023-04-28T11:44:26;100681.66;;;16.49;88.17
64095;BME280;50353;51.420;5.682;2023-04-28T11:46:53;100690.03;;;16.34;87.85
64095;BME280;50353;51.420;5.682;2023-04-28T11:49:21;100688.53;;;15.89;89.13
64095;BME280;50353;51.420;5.682;2023-04-28T11:51:49;100692.06;;;15.79;92.74
64095;BME280;50353;51.420;5.682;2023-04-28T11:54:26;100692.13;;;15.67;92.06
64095;BME280;50353;51.420;5.682;2023-04-28T11:56:52;100693.81;;;16.01;92.43
64095;BME280;50353;51.420;5.682;2023-04-28T11:59:25;100696.38;;;15.70;95.23
64095;BME280;50353;51.420;5.682;2023-04-28T12:02:00;100699.09;;;15.59;95.96
64095;BME280;50353;51.420;5.682;2023-04-28T12:04:33;100699.03;;;15.70;93.85
64095;BME280;50353;51.420;5.682;2023-04-28T12:07:10;100696.91;;;15.64;95.68
64095;BME280;50353;51.420;5.682;2023-04-28T12:09:44;100710.44;;;15.40;98.00
64095;BME280;50353;51.420;5.682;2023-04-28T12:12:29;100705.94;;;15.94;93.68
64095;BME280;50353;51.420;5.682;2023-04-28T12:14:56;100706.91;;;16.14;93.21
64095;BME280;50353;51.420;5.682;2023-04-28T12:20:34;100706.38;;;16.51;96.20
64095;BME280;50353;51.420;5.682;2023-04-28T12:23:00;100699.28;;;16.71;90.65
64095;BME280;50353;51.420;5.682;2023-04-28T12:25:26;100699.69;;;16.56;91.16
64095;BME280;50353;51.420;5.682;2023-04-28T12:28:05;100700.53;;;16.67;92.49
64095;BME280;50353;51.420;5.682;2023-04-28T12:30:33;100702.28;;;16.87;89.84
64095;BME280;50353;51.420;5.682;2023-04-28T12:32:59;100705.72;;;16.89;86.32
64095;BME280;50353;51.420;5.682;2023-04-28T12:35:26;100708.84;;;16.64;88.24
64095;BME280;50353;51.420;5.682;2023-04-28T12:37:52;100713.66;;;16.39;91.44
64095;BME280;50353;51.420;5.682;2023-04-28T12:40:18;100719.59;;;16.21;91.35
64095;BME280;50353;51.420;5.682;2023-04-28T12:42:43;100718.19;;;15.96;94.61
64095;BME280;50353;51.420;5.682;2023-04-28T12:45:09;100721.09;;;16.45;90.67
64095;BME280;50353;51.420;5.682;2023-04-28T12:47:35;100727.34;;;15.82;96.36
64095;BME280;50353;51.420;5.682;2023-04-28T12:50:01;100723.41;;;16.29;89.58
64095;BME280;50353;51.420;5.682;2023-04-28T12:52:27;100721.56;;;16.50;90.89
64095;BME280;50353;51.420;5.682;2023-04-28T12:54:52;100724.84;;;16.33;91.21
64095;BME280;50353;51.420;5.682;2023-04-28T12:57:18;100728.94;;;16.06;94.17
64095;BME280;50353;51.420;5.682;2023-04-28T12:59:44;100729.66;;;16.39;94.48
64095;BME280;50353;51.420;5.682;2023-04-28T13:02:12;100724.91;;;16.83;88.38
64095;BME280;50353;51.420;5.682;2023-04-28T13:04:39;100720.88;;;16.89;90.23